createdAt,value
2017-11-29T00:01:31.133Z,3.51
2017-11-29T00:03:58.634Z,3.51
2017-11-29T00:06:26.129Z,3.54
2017-11-29T00:08:53.647Z,3.37
2017-11-29T00:11:21.147Z,3.74
2017-11-29T00:13:48.637Z,3.63
2017-11-29T00:16:16.495Z,3.37
2017-11-29T00:18:44.013Z,3.17
2017-11-29T00:21:11.536Z,3.32
2017-11-29T00:23:39.097Z,3.52
2017-11-29T00:26:06.588Z,3.76
2017-11-29T00:28:34.069Z,3.98
2017-11-29T00:31:01.590Z,3.83
2017-11-29T00:33:29.078Z,2.99
2017-11-29T00:35:56.567Z,3.07
2017-11-29T00:38:24.073Z,2.78
2017-11-29T00:40:51.566Z,2.78
2017-11-29T00:43:19.071Z,3.16
2017-11-29T00:45:46.583Z,3.29
2017-11-29T00:48:14.109Z,3.52
2017-11-29T00:50:41.627Z,3.44
2017-11-29T00:53:09.113Z,3.21
2017-11-29T00:55:36.631Z,3.57
2017-11-29T00:58:04.128Z,3.08
2017-11-29T01:00:31.622Z,3.17
2017-11-29T01:02:59.124Z,3.73
2017-11-29T01:05:26.638Z,3.43
2017-11-29T01:07:54.139Z,3.38
2017-11-29T01:10:21.653Z,3.65
2017-11-29T01:12:49.155Z,3.68
2017-11-29T01:15:16.660Z,3.60
2017-11-29T01:17:44.146Z,3.22
2017-11-29T01:20:11.645Z,2.54
2017-11-29T01:22:39.132Z,2.66
2017-11-29T01:25:06.645Z,3.08
2017-11-29T01:27:34.130Z,2.99
2017-11-29T01:30:01.618Z,2.73
2017-11-29T01:32:29.121Z,2.91
2017-11-29T01:34:56.634Z,2.31
2017-11-29T01:37:24.127Z,1.90
2017-11-29T01:39:51.635Z,2.10
2017-11-29T01:42:19.150Z,1.55
2017-11-29T01:44:46.643Z,1.58
2017-11-29T01:47:14.238Z,1.81
2017-11-29T01:49:41.834Z,1.53
2017-11-29T01:52:09.323Z,1.74
2017-11-29T01:54:36.818Z,1.67
2017-11-29T01:57:04.329Z,1.69
2017-11-29T01:59:31.830Z,1.49
2017-11-29T02:01:59.322Z,1.56
2017-11-29T02:04:26.828Z,1.20
2017-11-29T02:06:54.317Z,1.50
2017-11-29T02:09:21.830Z,1.50
2017-11-29T02:11:49.331Z,1.23
2017-11-29T02:14:16.852Z,0.98
2017-11-29T02:16:44.543Z,0.79
2017-11-29T02:19:12.039Z,0.64
2017-11-29T02:21:39.550Z,0.58
2017-11-29T02:24:07.060Z,0.58
2017-11-29T02:26:34.548Z,0.71
2017-11-29T02:29:02.128Z,0.84
2017-11-29T02:31:29.627Z,0.72
2017-11-29T02:33:57.122Z,0.65
2017-11-29T02:36:24.606Z,0.88
2017-11-29T02:38:52.109Z,0.54
2017-11-29T02:41:31.609Z,0.32
2017-11-29T02:43:59.121Z,0.63
2017-11-29T02:46:26.602Z,0.93
2017-11-29T02:48:54.109Z,0.90
2017-11-29T02:51:21.596Z,0.52
2017-11-29T02:53:49.083Z,0.15
2017-11-29T02:56:16.584Z,0.23
2017-11-29T02:58:44.101Z,-0.10
2017-11-29T03:01:11.605Z,-0.16
2017-11-29T03:06:46.848Z,0.01
2017-11-29T03:09:18.325Z,0.05
2017-11-29T03:11:49.144Z,0.12
2017-11-29T03:14:20.049Z,0.05
2017-11-29T03:16:49.738Z,0.31
2017-11-29T03:19:19.242Z,0.34
2017-11-29T03:21:49.183Z,-0.25
2017-11-29T03:24:18.528Z,-0.59
2017-11-29T03:26:47.634Z,-0.66
2017-11-29T03:29:15.174Z,-0.69
2017-11-29T03:31:43.902Z,-0.65
2017-11-29T03:34:15.341Z,-0.64
2017-11-29T03:36:45.842Z,-0.53
2017-11-29T03:39:17.889Z,-0.09
2017-11-29T03:41:49.997Z,-0.21
2017-11-29T03:44:20.704Z,-0.07
2017-11-29T03:46:52.061Z,0.24
2017-11-29T03:49:21.932Z,-0.06
2017-11-29T03:51:52.647Z,-0.30
2017-11-29T03:54:22.116Z,-0.57
2017-11-29T03:56:49.642Z,-0.16
2017-11-29T03:59:17.145Z,-0.32
2017-11-29T04:01:44.643Z,-0.30
2017-11-29T04:04:12.149Z,0.11
2017-11-29T04:06:39.660Z,0.30
2017-11-29T04:09:07.180Z,-0.32
2017-11-29T04:11:34.703Z,-0.11
2017-11-29T04:14:02.207Z,-0.12
2017-11-29T04:16:29.711Z,-0.14
2017-11-29T04:18:57.231Z,-0.04
2017-11-29T04:21:24.756Z,-0.05
2017-11-29T04:23:52.250Z,0.15
2017-11-29T04:26:19.751Z,-0.61
2017-11-29T04:28:47.255Z,-0.39
2017-11-29T04:31:14.770Z,0.16
2017-11-29T04:33:42.261Z,0.26
2017-11-29T04:36:09.770Z,0.31
2017-11-29T04:38:37.287Z,-0.07
2017-11-29T04:41:04.786Z,-0.85
2017-11-29T04:43:32.281Z,-1.00
2017-11-29T04:45:59.782Z,-0.92
2017-11-29T04:48:27.287Z,-0.56
2017-11-29T04:50:54.786Z,-0.79
2017-11-29T04:53:22.280Z,-0.62
2017-11-29T04:55:49.771Z,-0.38
2017-11-29T04:58:17.275Z,-0.55
2017-11-29T05:00:44.786Z,-0.10
2017-11-29T05:03:12.282Z,-0.32
2017-11-29T05:05:39.770Z,-0.43
2017-11-29T05:08:07.262Z,0.01
2017-11-29T05:10:34.763Z,-0.06
2017-11-29T05:13:02.276Z,-0.14
2017-11-29T05:15:29.778Z,-0.41
2017-11-29T05:17:57.281Z,-0.88
2017-11-29T05:20:24.801Z,-0.80
2017-11-29T05:22:52.330Z,-0.74
2017-11-29T05:25:19.823Z,-0.84
2017-11-29T05:27:47.329Z,-0.71
2017-11-29T05:30:14.829Z,-0.32
2017-11-29T05:32:42.443Z,-0.52
2017-11-29T05:35:09.940Z,-0.94
2017-11-29T05:37:37.451Z,-1.09
2017-11-29T05:40:04.959Z,-0.83
2017-11-29T05:42:32.474Z,-0.46
2017-11-29T05:44:59.991Z,-0.19
2017-11-29T05:47:27.497Z,0.06
2017-11-29T05:49:54.995Z,-0.14
2017-11-29T05:52:22.511Z,-0.63
2017-11-29T05:54:50.028Z,-0.77
2017-11-29T05:57:17.522Z,-0.97
2017-11-29T05:59:45.047Z,-0.98
2017-11-29T06:02:12.690Z,-0.91
2017-11-29T06:04:40.191Z,-0.90
2017-11-29T06:07:07.699Z,-0.54
2017-11-29T06:09:35.225Z,-0.55
2017-11-29T06:12:02.766Z,-0.82
2017-11-29T06:14:30.276Z,-0.25
2017-11-29T06:16:57.781Z,-0.51
2017-11-29T06:19:25.287Z,-0.41
2017-11-29T06:21:52.787Z,-0.40
2017-11-29T06:24:20.289Z,-0.28
2017-11-29T06:26:47.801Z,-0.79
2017-11-29T06:29:15.299Z,-1.23
2017-11-29T06:31:42.806Z,-1.38
2017-11-29T06:34:10.329Z,-1.45
2017-11-29T06:36:37.859Z,-1.25
2017-11-29T06:39:05.384Z,-0.77
2017-11-29T06:41:32.898Z,-0.67
2017-11-29T06:44:00.432Z,-0.84
2017-11-29T06:46:27.936Z,-0.72
2017-11-29T06:48:55.499Z,-0.92
2017-11-29T06:51:22.998Z,-0.81
2017-11-29T06:53:50.529Z,-0.62
2017-11-29T06:56:18.025Z,-0.83
2017-11-29T06:58:45.548Z,-0.79
2017-11-29T07:01:13.063Z,-0.81
2017-11-29T07:03:40.546Z,-0.89
2017-11-29T07:06:08.033Z,-1.15
2017-11-29T07:08:35.537Z,-1.16
2017-11-29T07:11:03.042Z,-1.16
2017-11-29T07:13:30.559Z,-0.93
2017-11-29T07:15:58.228Z,-1.03
2017-11-29T07:18:25.734Z,-1.05
2017-11-29T07:20:53.235Z,-0.82
2017-11-29T07:23:20.897Z,-0.70
2017-11-29T07:25:48.415Z,-0.54
2017-11-29T07:28:15.909Z,-0.60
2017-11-29T07:30:44.694Z,0.00
2017-11-29T07:33:12.201Z,-0.07
2017-11-29T07:35:39.713Z,0.28
2017-11-29T07:38:07.413Z,0.01
2017-11-29T07:40:34.907Z,-0.40
2017-11-29T07:43:02.442Z,-0.46
2017-11-29T07:45:30.044Z,-0.52
2017-11-29T07:47:57.579Z,-0.61
2017-11-29T07:50:25.116Z,-0.33
2017-11-29T07:52:52.621Z,-0.17
2017-11-29T07:55:20.151Z,-0.37
2017-11-29T07:57:47.669Z,0.35
2017-11-29T08:00:15.186Z,0.95
2017-11-29T08:02:42.682Z,1.31
2017-11-29T08:05:10.186Z,1.45
2017-11-29T08:07:37.698Z,2.01
2017-11-29T08:10:05.228Z,1.96
2017-11-29T08:12:32.779Z,1.33
2017-11-29T08:15:00.279Z,2.09
2017-11-29T08:17:27.787Z,2.33
2017-11-29T08:19:55.313Z,2.11
2017-11-29T08:22:22.810Z,2.45
2017-11-29T08:24:50.310Z,2.30
2017-11-29T08:27:17.804Z,2.16
2017-11-29T08:29:45.306Z,1.55
2017-11-29T08:32:12.818Z,1.23
2017-11-29T08:34:40.333Z,2.24
2017-11-29T08:37:07.851Z,2.74
2017-11-29T08:39:35.350Z,1.40
2017-11-29T08:42:02.860Z,1.55
2017-11-29T08:44:30.370Z,2.00
2017-11-29T08:46:57.881Z,2.63
2017-11-29T08:49:25.391Z,2.79
2017-11-29T08:51:53.034Z,3.43
2017-11-29T08:54:20.557Z,3.57
2017-11-29T08:56:48.057Z,3.75
2017-11-29T08:59:15.567Z,4.04
2017-11-29T09:01:43.059Z,4.52
2017-11-29T09:04:10.613Z,3.69
2017-11-29T09:06:38.144Z,3.86
2017-11-29T09:09:05.642Z,4.22
2017-11-29T09:11:33.145Z,4.99
2017-11-29T09:14:00.755Z,5.56
2017-11-29T09:16:28.266Z,5.91
2017-11-29T09:18:55.804Z,8.59
2017-11-29T09:21:23.398Z,6.74
2017-11-29T09:23:50.909Z,8.36
2017-11-29T09:26:18.432Z,8.05
2017-11-29T09:28:46.687Z,9.37
2017-11-29T09:31:14.260Z,12.82
2017-11-29T09:33:41.810Z,10.92
2017-11-29T09:36:09.316Z,9.74
2017-11-29T09:38:36.810Z,7.79
2017-11-29T09:41:04.461Z,9.54
2017-11-29T09:43:32.111Z,9.68
2017-11-29T09:45:59.637Z,9.53
2017-11-29T09:48:27.203Z,9.49
2017-11-29T09:50:54.873Z,9.70
2017-11-29T09:53:22.372Z,9.18
2017-11-29T09:55:49.867Z,10.37
2017-11-29T09:58:17.386Z,12.58
2017-11-29T10:00:45.538Z,16.22
2017-11-29T10:03:13.157Z,15.26
2017-11-29T10:05:40.665Z,15.80
2017-11-29T10:08:08.159Z,14.83
2017-11-29T10:10:35.776Z,13.61
2017-11-29T10:13:03.283Z,8.04
2017-11-29T10:15:30.797Z,5.59
2017-11-29T10:17:58.308Z,7.43
2017-11-29T10:20:25.827Z,6.97
2017-11-29T10:22:53.328Z,6.13
2017-11-29T10:25:20.914Z,6.51
2017-11-29T10:27:48.568Z,6.92
2017-11-29T10:30:16.077Z,7.00
2017-11-29T10:32:43.556Z,6.05
2017-11-29T10:35:11.159Z,5.70
2017-11-29T10:37:38.775Z,5.57
2017-11-29T10:40:06.314Z,5.47
2017-11-29T10:42:33.836Z,5.73
2017-11-29T10:45:01.360Z,5.41
2017-11-29T10:47:28.849Z,5.61
2017-11-29T10:49:56.514Z,5.72
2017-11-29T10:52:24.010Z,5.41
2017-11-29T10:54:51.506Z,5.28
2017-11-29T10:57:19.013Z,5.57
2017-11-29T10:59:46.534Z,4.88
2017-11-29T11:02:14.188Z,5.34
2017-11-29T11:04:41.700Z,5.55
2017-11-29T11:07:09.196Z,5.39
2017-11-29T11:09:36.688Z,5.07
2017-11-29T11:12:04.324Z,5.63
2017-11-29T11:14:31.832Z,4.93
2017-11-29T11:16:59.448Z,5.06
2017-11-29T11:19:26.946Z,5.22
2017-11-29T11:21:54.439Z,5.44
2017-11-29T11:24:21.966Z,5.57
2017-11-29T11:26:49.518Z,4.77
2017-11-29T11:29:17.021Z,4.96
2017-11-29T11:31:44.502Z,4.61
2017-11-29T11:34:12.071Z,4.92
2017-11-29T11:36:39.704Z,4.78
2017-11-29T11:39:07.278Z,4.61
2017-11-29T11:41:34.838Z,4.50
2017-11-29T11:44:02.351Z,4.88
2017-11-29T11:46:29.961Z,4.64
2017-11-29T11:48:57.459Z,4.90
2017-11-29T11:51:25.064Z,4.55
2017-11-29T11:53:52.726Z,4.82
2017-11-29T11:56:20.230Z,4.69
2017-11-29T11:58:47.720Z,4.89
2017-11-29T12:01:15.233Z,4.80
2017-11-29T12:03:42.731Z,5.31
2017-11-29T12:06:10.239Z,5.06
2017-11-29T12:08:37.754Z,5.20
2017-11-29T12:11:05.254Z,5.56
2017-11-29T12:13:32.752Z,5.73
2017-11-29T12:16:00.255Z,5.32
2017-11-29T12:18:27.750Z,4.64
2017-11-29T12:20:55.256Z,4.65
2017-11-29T12:23:22.784Z,4.63
2017-11-29T12:25:50.270Z,4.43
2017-11-29T12:28:17.875Z,4.22
2017-11-29T12:30:45.372Z,4.34
2017-11-29T12:33:12.880Z,4.54
2017-11-29T12:35:40.390Z,4.71
2017-11-29T12:38:07.887Z,4.84
2017-11-29T12:40:35.386Z,5.31
2017-11-29T12:43:02.903Z,5.20
2017-11-29T12:45:30.397Z,5.51
2017-11-29T12:48:09.728Z,5.25
2017-11-29T12:53:41.459Z,4.76
2017-11-29T12:56:08.974Z,4.51
2017-11-29T12:58:36.494Z,4.49
2017-11-29T13:01:03.986Z,4.12
2017-11-29T13:03:31.518Z,4.09
2017-11-29T13:05:59.025Z,4.19
2017-11-29T13:08:26.530Z,4.33
2017-11-29T13:10:54.020Z,4.56
2017-11-29T13:13:21.527Z,4.95
2017-11-29T13:15:49.029Z,4.45
2017-11-29T13:18:16.553Z,4.36
2017-11-29T13:20:44.080Z,4.37
2017-11-29T13:23:11.593Z,4.59
2017-11-29T13:25:39.085Z,5.06
2017-11-29T13:28:06.635Z,5.14
2017-11-29T13:30:34.213Z,4.69
2017-11-29T13:33:01.706Z,4.61
2017-11-29T13:35:29.205Z,4.69
2017-11-29T13:37:56.702Z,4.76
2017-11-29T13:40:24.226Z,5.08
2017-11-29T13:42:51.727Z,5.21
2017-11-29T13:45:19.224Z,5.04
2017-11-29T13:47:46.737Z,4.92
2017-11-29T13:50:14.254Z,4.45
2017-11-29T13:52:41.861Z,4.33
2017-11-29T13:55:09.394Z,4.53
2017-11-29T13:57:37.738Z,4.53
2017-11-29T14:00:05.250Z,4.33
2017-11-29T14:02:32.833Z,4.49
2017-11-29T14:05:00.336Z,4.39
2017-11-29T14:07:27.826Z,3.78
2017-11-29T14:09:55.492Z,3.94
2017-11-29T14:12:22.976Z,3.92
2017-11-29T14:14:50.475Z,4.11
2017-11-29T14:17:17.989Z,3.92
2017-11-29T14:19:45.491Z,4.12
2017-11-29T14:22:12.980Z,3.63
2017-11-29T14:24:40.477Z,3.81
2017-11-29T14:27:07.974Z,3.51
2017-11-29T14:29:35.463Z,3.42
2017-11-29T14:32:02.979Z,3.21
2017-11-29T14:34:32.131Z,3.66
2017-11-29T14:36:59.701Z,3.90
2017-11-29T14:39:27.208Z,3.81
2017-11-29T14:41:54.715Z,3.67
2017-11-29T14:44:22.204Z,3.82
2017-11-29T14:46:49.704Z,4.03
2017-11-29T14:49:17.217Z,3.61
2017-11-29T14:51:44.721Z,3.27
2017-11-29T14:54:12.215Z,3.16
2017-11-29T14:56:39.734Z,3.27
2017-11-29T14:59:07.244Z,3.15
2017-11-29T15:01:34.747Z,3.26
2017-11-29T15:04:02.263Z,3.59
2017-11-29T15:06:29.791Z,3.48
2017-11-29T15:08:57.325Z,2.78
2017-11-29T15:11:24.821Z,2.65
2017-11-29T15:13:52.359Z,2.39
2017-11-29T15:16:19.897Z,3.09
2017-11-29T15:18:47.422Z,3.18
2017-11-29T15:21:14.938Z,3.10
2017-11-29T15:23:42.482Z,2.93
2017-11-29T15:26:09.973Z,2.55
2017-11-29T15:28:37.486Z,3.07
2017-11-29T15:31:05.034Z,3.22
2017-11-29T15:33:34.118Z,3.07
2017-11-29T15:36:01.624Z,3.39
2017-11-29T15:38:29.170Z,2.84
2017-11-29T15:40:56.683Z,3.02
2017-11-29T15:43:24.171Z,3.11
2017-11-29T15:45:51.667Z,3.11
2017-11-29T15:48:19.169Z,3.00
2017-11-29T15:50:46.786Z,2.89
2017-11-29T15:53:14.307Z,3.06
2017-11-29T15:55:41.847Z,3.09
2017-11-29T15:58:09.351Z,2.74
2017-11-29T16:00:36.841Z,2.84
2017-11-29T16:03:04.460Z,2.95
2017-11-29T16:05:31.967Z,3.02
2017-11-29T16:07:59.465Z,2.61
2017-11-29T16:10:26.975Z,2.39
2017-11-29T16:12:54.546Z,2.31
2017-11-29T16:15:22.061Z,2.06
2017-11-29T16:17:49.571Z,1.98
2017-11-29T16:20:17.072Z,1.69
2017-11-29T16:22:44.563Z,1.33
2017-11-29T16:25:12.071Z,1.73
2017-11-29T16:27:39.597Z,2.09
2017-11-29T16:30:07.096Z,2.43
2017-11-29T16:32:34.623Z,2.31
2017-11-29T16:35:02.314Z,2.35
2017-11-29T16:37:29.807Z,2.33
2017-11-29T16:39:57.356Z,2.00
2017-11-29T16:42:24.883Z,2.03
2017-11-29T16:44:52.408Z,2.25
2017-11-29T16:47:19.925Z,2.29
2017-11-29T16:49:47.464Z,2.16
2017-11-29T16:52:15.018Z,2.14
2017-11-29T16:54:42.547Z,1.46
2017-11-29T16:57:10.060Z,1.61
2017-11-29T16:59:37.567Z,1.62
2017-11-29T17:02:05.097Z,1.82
2017-11-29T17:04:32.598Z,1.98
2017-11-29T17:07:00.101Z,1.73
2017-11-29T17:09:27.589Z,1.61
2017-11-29T17:11:55.102Z,1.56
2017-11-29T17:14:22.607Z,1.14
2017-11-29T17:16:50.147Z,1.16
2017-11-29T17:19:17.631Z,1.71
2017-11-29T17:21:45.175Z,1.96
2017-11-29T17:24:12.747Z,2.15
2017-11-29T17:26:40.270Z,2.14
2017-11-29T17:29:07.914Z,1.87
2017-11-29T17:31:35.457Z,1.92
2017-11-29T17:34:03.015Z,1.95
2017-11-29T17:36:30.557Z,2.19
2017-11-29T17:38:58.079Z,2.11
2017-11-29T17:41:25.602Z,1.35
2017-11-29T17:43:53.117Z,1.57
2017-11-29T17:46:20.639Z,1.69
2017-11-29T17:48:48.162Z,2.01
2017-11-29T17:51:15.722Z,2.07
2017-11-29T17:53:43.250Z,2.30
2017-11-29T17:56:10.756Z,2.48
2017-11-29T17:58:38.277Z,2.17
2017-11-29T18:01:05.809Z,1.72
2017-11-29T18:03:33.329Z,1.41
2017-11-29T18:06:00.847Z,1.67
2017-11-29T18:08:28.349Z,2.16
2017-11-29T18:10:55.851Z,2.31
2017-11-29T18:13:23.358Z,2.24
2017-11-29T18:15:50.872Z,1.66
2017-11-29T18:18:18.375Z,1.34
2017-11-29T18:20:45.880Z,1.12
2017-11-29T18:23:13.409Z,1.29
2017-11-29T18:25:40.940Z,1.76
2017-11-29T18:28:08.470Z,2.00
2017-11-29T18:30:36.019Z,2.15
2017-11-29T18:33:03.540Z,1.74
2017-11-29T18:35:31.108Z,1.34
2017-11-29T18:37:58.642Z,1.24
2017-11-29T18:40:26.213Z,1.13
2017-11-29T18:42:53.720Z,1.14
2017-11-29T18:45:21.249Z,1.39
2017-11-29T18:47:49.003Z,1.40
2017-11-29T18:50:16.772Z,1.37
2017-11-29T18:52:44.307Z,1.39
2017-11-29T18:55:11.818Z,1.60
2017-11-29T18:57:39.343Z,1.23
2017-11-29T19:00:06.868Z,0.95
2017-11-29T19:02:34.418Z,1.19
2017-11-29T19:05:01.942Z,1.34
2017-11-29T19:07:29.479Z,1.00
2017-11-29T19:09:57.008Z,1.28
2017-11-29T19:12:24.539Z,0.99
2017-11-29T19:14:52.260Z,0.76
2017-11-29T19:17:20.123Z,0.67
2017-11-29T19:19:47.991Z,0.59
2017-11-29T19:22:15.958Z,0.58
2017-11-29T19:24:43.826Z,0.65
2017-11-29T19:27:11.901Z,0.74
2017-11-29T19:29:39.967Z,0.87
2017-11-29T19:32:07.937Z,0.62
2017-11-29T19:34:35.907Z,0.65
2017-11-29T19:37:03.880Z,1.08
2017-11-29T19:39:32.162Z,1.38
2017-11-29T19:42:00.118Z,1.16
2017-11-29T19:44:28.292Z,0.80
2017-11-29T19:46:56.396Z,0.26
2017-11-29T19:49:24.343Z,0.55
2017-11-29T19:51:52.423Z,0.60
2017-11-29T19:54:20.683Z,0.46
2017-11-29T19:56:48.660Z,0.43
2017-11-29T19:59:16.733Z,0.21
2017-11-29T20:01:44.793Z,0.71
2017-11-29T20:04:12.930Z,0.94
2017-11-29T20:06:40.934Z,0.45
2017-11-29T20:09:09.006Z,-0.04
2017-11-29T20:11:37.056Z,-0.10
2017-11-29T20:14:05.053Z,-0.13
2017-11-29T20:16:33.000Z,-0.09
2017-11-29T20:19:00.889Z,0.05
2017-11-29T20:21:28.966Z,0.16
2017-11-29T20:23:56.928Z,-0.02
2017-11-29T20:26:24.906Z,-0.18
2017-11-29T20:28:52.976Z,-0.21
2017-11-29T20:31:20.932Z,-0.15
2017-11-29T20:33:48.904Z,-0.19
2017-11-29T20:36:17.095Z,-0.22
2017-11-29T20:38:44.639Z,-0.20
2017-11-29T20:41:12.299Z,-0.01
2017-11-29T20:43:40.029Z,-0.06
2017-11-29T20:46:07.621Z,0.10
2017-11-29T20:48:35.185Z,0.39
2017-11-29T20:51:02.764Z,0.71
2017-11-29T20:53:30.293Z,0.78
2017-11-29T20:55:57.878Z,0.70
2017-11-29T20:58:25.519Z,0.65
2017-11-29T21:00:53.035Z,0.21
2017-11-29T21:03:20.590Z,0.18
2017-11-29T21:05:48.128Z,0.30
2017-11-29T21:08:15.663Z,0.69
2017-11-29T21:10:43.178Z,0.80
2017-11-29T21:13:10.733Z,0.70
2017-11-29T21:15:38.270Z,0.66
2017-11-29T21:18:05.795Z,0.98
2017-11-29T21:20:33.325Z,0.72
2017-11-29T21:23:00.857Z,0.50
2017-11-29T21:25:28.376Z,0.47
2017-11-29T21:27:55.936Z,0.44
2017-11-29T21:30:23.454Z,0.20
2017-11-29T21:32:51.040Z,0.44
2017-11-29T21:35:18.546Z,0.33
2017-11-29T21:37:46.061Z,0.37
2017-11-29T21:40:13.722Z,0.28
2017-11-29T21:42:41.278Z,0.16
2017-11-29T21:45:08.808Z,0.16
2017-11-29T21:47:36.332Z,0.52
2017-11-29T21:50:03.967Z,0.29
2017-11-29T21:52:31.496Z,0.16
2017-11-29T21:54:59.074Z,0.34
2017-11-29T21:57:26.575Z,0.71
2017-11-29T21:59:54.111Z,0.82
2017-11-29T22:02:21.659Z,0.52
2017-11-29T22:04:49.175Z,0.15
2017-11-29T22:07:16.713Z,0.06
2017-11-29T22:09:44.238Z,0.26
2017-11-29T22:12:11.840Z,0.20
2017-11-29T22:14:39.363Z,0.64
2017-11-29T22:17:06.876Z,0.72
2017-11-29T22:19:34.373Z,0.62
2017-11-29T22:22:01.870Z,0.59
2017-11-29T22:24:29.379Z,-0.09
2017-11-29T22:26:56.943Z,-0.22
2017-11-29T22:29:24.465Z,-0.20
2017-11-29T22:31:51.969Z,-0.10
2017-11-29T22:34:19.598Z,-0.26
2017-11-29T22:36:47.128Z,0.28
2017-11-29T22:39:14.731Z,0.57
2017-11-29T22:41:42.288Z,0.45
2017-11-29T22:44:09.812Z,-0.12
2017-11-29T22:46:37.344Z,0.15
2017-11-29T22:49:04.876Z,0.16
2017-11-29T22:51:32.399Z,0.13
2017-11-29T22:53:59.907Z,0.03
2017-11-29T22:56:27.432Z,-0.08
2017-11-29T22:58:54.972Z,-0.39
2017-11-29T23:01:22.652Z,-0.72
2017-11-29T23:03:50.175Z,-0.88
2017-11-29T23:06:18.226Z,-0.96
2017-11-29T23:08:45.741Z,-1.00
2017-11-29T23:11:13.266Z,-0.95
2017-11-29T23:13:40.816Z,-0.85
2017-11-29T23:16:08.341Z,-0.64
2017-11-29T23:18:35.887Z,-0.25
2017-11-29T23:21:03.395Z,-0.08
2017-11-29T23:23:30.962Z,-0.11
2017-11-29T23:25:58.477Z,0.03
2017-11-29T23:28:25.981Z,-0.22
2017-11-29T23:30:53.578Z,-0.20
2017-11-29T23:33:21.086Z,-0.54
2017-11-29T23:35:48.598Z,-0.57
2017-11-29T23:38:16.134Z,-0.29
2017-11-29T23:40:43.640Z,-0.35
2017-11-29T23:43:11.150Z,0.19
2017-11-29T23:45:38.657Z,0.29
2017-11-29T23:48:06.150Z,0.10
2017-11-29T23:50:33.667Z,0.11
2017-11-29T23:53:01.174Z,-0.49
2017-11-29T23:55:28.706Z,-0.44
2017-11-29T23:57:56.226Z,0.06
